Wilson Mersin — P3PA6 — position and weather

sailwx.info

Track history (hours):
 
Tides and Currents Weather Stations Pressure Air Temp Water Temp Dewpoint Dewpoint Depression Visibility Wind Speed Wind Dir Waves Ship Positions

Wilson Mersin

Last reported at 2016-Feb-08 16:30 UTC. Time now 2016-Feb-08 16:59 UTC.
Position N 53°24' W 003°03'.

Length 107 m; draft 6.6 m.

Type: Cargo ship. MMSI: 210072000.

Date/timePositionNaut miles runAvg speedWind from/ knotsBaromVisibWave heightAir tempDewpointWater temp
2016-Feb-08 16:30N 53°24' W 003°03'0 0.0
2016-Feb-08 15:33N 53°24' W 003°03'0 0.0
2016-Feb-08 14:30N 53°24' W 003°03'0 0.0
2016-Feb-08 13:33N 53°24' W 003°03'0 0.0
2016-Feb-08 12:33N 53°24' W 003°03'0 0.0
2016-Feb-08 11:33N 53°24' W 003°03'0 0.0
2016-Feb-08 10:33N 53°24' W 003°03'0 0.0
2016-Feb-08 09:24N 53°24' W 003°03'0 0.0
2016-Feb-08 08:33N 53°24' W 003°03'0 0.0
2016-Feb-08 07:30N 53°24' W 003°03'0 0.0
2016-Feb-08 06:33N 53°24' W 003°03'0 0.0
2016-Feb-08 05:33N 53°24' W 003°03'0 0.0
2016-Feb-08 04:33N 53°24' W 003°03'0 0.0
2016-Feb-08 03:33N 53°24' W 003°03'0 0.0
2016-Feb-08 02:30N 53°24' W 003°03'0 0.0
2016-Feb-08 01:30N 53°24' W 003°03'0 0.0
2016-Feb-08 00:33N 53°24' W 003°03'0 0.0
2016-Feb-07 23:33N 53°24' W 003°03'0 0.0
2016-Feb-07 22:33N 53°24' W 003°03'0 0.0
2016-Feb-07 21:33N 53°24' W 003°03'0 0.0
2016-Feb-07 20:33N 53°24' W 003°03'0 0.0
2016-Feb-07 19:33N 53°24' W 003°03'0 0.0
2016-Feb-07 18:33N 53°24' W 003°03'0 0.0
2016-Feb-07 17:33N 53°24' W 003°03'0 0.0
2016-Feb-07 16:33N 53°24' W 003°03'0 0.0
2016-Feb-07 15:33N 53°24' W 003°03'0 0.0
2016-Feb-07 14:33N 53°24' W 003°03'0 0.0
2016-Feb-07 13:33N 53°24' W 003°03'0 0.0
2016-Feb-07 12:33N 53°24' W 003°03'0 0.0
2016-Feb-07 11:33N 53°24' W 003°03'0 0.0
2016-Feb-07 10:33N 53°24' W 003°03'0 0.0
2016-Feb-07 09:30N 53°24' W 003°03'0 0.0
2016-Feb-07 08:33N 53°24' W 003°03'0 0.0
2016-Feb-07 07:33N 53°24' W 003°03'0 0.0
2016-Feb-07 06:33N 53°24' W 003°03'0 0.0
2016-Feb-07 05:33N 53°24' W 003°03'0 0.0
2016-Feb-07 04:33N 53°24' W 003°03'0 0.0
2016-Feb-07 03:33N 53°24' W 003°03'0 0.0
2016-Feb-07 02:33N 53°24' W 003°03'0 0.0
2016-Feb-07 01:33N 53°24' W 003°03'0 0.0
2016-Feb-07 00:33N 53°24' W 003°03'0 0.0
2016-Feb-06 23:33N 53°24' W 003°03'0 0.0
2016-Feb-06 22:33N 53°24' W 003°03'0 0.0
2016-Feb-06 21:33N 53°24' W 003°03'0 0.0
2016-Feb-06 20:30N 53°24' W 003°03'0 0.0
2016-Feb-06 19:30N 53°24' W 003°03'0 0.0
2016-Feb-06 18:33N 53°24' W 003°03'0 0.0
2016-Feb-06 17:33N 53°24' W 003°03'0 0.0
2016-Feb-06 16:33N 53°24' W 003°03'0 0.0
2016-Feb-06 15:33N 53°24' W 003°03'0 0.0
2016-Feb-06 14:33N 53°24' W 003°03'0 0.0
2016-Feb-06 13:33N 53°24' W 003°03'0 0.0
2016-Feb-06 12:33N 53°24' W 003°03'0 0.0
2016-Feb-06 11:30N 53°24' W 003°03'0 0.0
2016-Feb-06 10:33N 53°24' W 003°03'0 0.0
2016-Feb-06 09:30N 53°24' W 003°03'0 0.0
2016-Feb-06 08:33N 53°24' W 003°03'0 0.0
2016-Feb-06 07:33N 53°24' W 003°03'0 0.0
2016-Feb-06 06:33N 53°24' W 003°03'0 0.0
2016-Feb-06 05:33N 53°24' W 003°03'0 0.0
2016-Feb-06 04:30N 53°24' W 003°03'0 0.0
2016-Feb-06 03:33N 53°24' W 003°03'0 0.0
2016-Feb-06 02:33N 53°24' W 003°03'0 0.0
2016-Feb-06 01:33N 53°24' W 003°03'0 0.0
2016-Feb-06 00:33N 53°24' W 003°03'0 0.0
2016-Feb-05 23:30N 53°24' W 003°03'0 0.0
2016-Feb-05 22:33N 53°24' W 003°03'1 0.9
2016-Feb-05 21:33N 53°24' W 003°01'0 0.0
2016-Feb-05 20:33N 53°24' W 003°01'1 0.7
2016-Feb-05 19:33N 53°24' W 003°00'6 5.9
2016-Feb-05 18:33N 53°29' W 003°05'9 9.2
2016-Feb-05 17:33N 53°31' W 003°20'4 4.4
2016-Feb-05 16:33N 53°28' W 003°25'0 0.1
2016-Feb-05 15:33N 53°28' W 003°25'0 0.0
2016-Feb-05 14:33N 53°28' W 003°25'0 0.0
2016-Feb-05 13:30N 53°29' W 003°25'0 0.0
2016-Feb-05 12:33N 53°29' W 003°25'0 0.0
2016-Feb-05 11:33N 53°29' W 003°25'0 0.0
2016-Feb-05 10:33N 53°29' W 003°25'0 0.0
2016-Feb-05 09:33N 53°28' W 003°25'0 0.0
2016-Feb-05 08:30N 53°28' W 003°25'0 0.0
2016-Feb-05 07:30N 53°28' W 003°25'0 0.0
2016-Feb-05 06:33N 53°28' W 003°25'0 0.0
2016-Feb-05 05:30N 53°28' W 003°25'0 0.0
2016-Feb-05 04:30N 53°28' W 003°25'0 0.0
2016-Feb-05 03:33N 53°28' W 003°25'0 0.0
2016-Feb-05 02:30N 53°28' W 003°25'0 0.0
2016-Feb-05 01:33N 53°28' W 003°25'0 0.1
2016-Feb-05 00:33N 53°28' W 003°25'0 0.0
2016-Feb-04 23:33N 53°28' W 003°25'0 0.1
2016-Feb-04 22:30N 53°28' W 003°25'0 0.0
2016-Feb-04 21:33N 53°28' W 003°25'0 0.0
2016-Feb-04 20:27N 53°28' W 003°25'0 0.0
2016-Feb-04 19:33N 53°28' W 003°25'0 0.0
2016-Feb-04 18:21N 53°28' W 003°25'0 0.0
2016-Feb-04 17:33N 53°28' W 003°25'0 0.1
2016-Feb-04 16:33N 53°28' W 003°25'9 9.3
2016-Feb-04 15:33N 53°30' W 003°41'68 9.7
2016-Feb-04 08:33N 54°11' W 005°13'1211.9
2016-Feb-04 07:33N 54°22' W 005°11'1110.6
2016-Feb-04 06:33N 54°32' W 005°03'3 2.7
2016-Feb-04 05:33N 54°34' W 005°02'2 2.1
2016-Feb-04 04:33N 54°36' W 005°05'2 1.9
2016-Feb-04 03:33N 54°37' W 005°07'2 1.5
2016-Feb-04 02:33N 54°37' W 005°10'1 1.2
2016-Feb-04 01:33N 54°37' W 005°12'1 1.2
2016-Feb-04 00:33N 54°37' W 005°13'1 1.5
2016-Feb-03 23:33N 54°35' W 005°15'3 2.5
2016-Feb-03 22:33N 54°38' W 005°17'1110.9
2016-Feb-03 21:33N 54°48' W 005°24'4212.1
2016-Feb-03 18:05N 55°21' W 006°09'611.9
2016-Feb-03 17:33N 55°23' W 006°19'1212.5
2016-Feb-03 16:33N 55°28' W 006°39'  
2016-Feb-01 01:31N 58°04' E 005°51'1010.5
2016-Feb-01 00:33N 58°01' E 006°09'1010.1
2016-Jan-31 23:33N 57°57' E 006°27'8 8.3
2016-Jan-31 22:33N 57°54' E 006°41'8 7.8
2016-Jan-31 21:33N 57°52' E 006°55'112 9.3
2016-Jan-31 09:33N 57°49' E 010°25'8 8.1
2016-Jan-31 08:33N 57°49' E 010°40'8 7.7
2016-Jan-31 07:33N 57°45' E 010°52'10 9.7
2016-Jan-31 06:33N 57°38' E 011°06'1010.4
2016-Jan-31 05:33N 57°31' E 011°20'1010.4
2016-Jan-31 04:33N 57°22' E 011°30'1111.3
2016-Jan-31 03:33N 57°11' E 011°37'1111.1
2016-Jan-31 02:33N 57°01' E 011°44'1111.2
2016-Jan-31 01:33N 56°50' E 011°51'1111.4
2016-Jan-31 00:33N 56°39' E 011°56'3611.1
2016-Jan-30 21:17N 56°08' E 012°30'710.0
2016-Jan-30 20:33N 56°03' E 012°40'9 9.4
2016-Jan-30 19:33N 55°54' E 012°45'1010.4
2016-Jan-30 18:33N 55°44' E 012°41'9 9.4
2016-Jan-30 17:33N 55°35' E 012°42'1010.3
2016-Jan-30 16:33N 55°24' E 012°42'10 9.5
2016-Jan-30 15:33N 55°16' E 012°51'1111.0
2016-Jan-30 14:33N 55°15' E 013°10'2110.6
2016-Jan-30 12:33N 55°14' E 013°47'10 9.8
2016-Jan-30 11:33N 55°14' E 014°04'9 8.8
2016-Jan-30 10:33N 55°15' E 014°19'1010.0
2016-Jan-30 09:33N 55°23' E 014°30'9 9.3
2016-Jan-30 08:33N 55°29' E 014°43'10 9.6
2016-Jan-30 07:33N 55°34' E 014°57'10 9.7
2016-Jan-30 06:33N 55°38' E 015°12'  
Track history (hours):
 
Tides and Currents Weather Stations Pressure Air Temp Water Temp Dewpoint Dewpoint Depression Visibility Wind Speed Wind Dir Waves Ship Positions

Wilson Mersin

Last reported at 2016-Feb-08 16:30 UTC. Time now 2016-Feb-08 16:59 UTC.
Position N 53°24' W 003°03'.

Length 107 m; draft 6.6 m.

Type: Cargo ship. MMSI: 210072000.

Date/timePositionNaut miles runAvg speedWind from/ knotsBaromVisibWave heightAir tempDewpointWater temp
2016-Feb-08 16:30N 53°24' W 003°03'0 0.0
2016-Feb-08 15:33N 53°24' W 003°03'0 0.0
2016-Feb-08 14:30N 53°24' W 003°03'0 0.0
2016-Feb-08 13:33N 53°24' W 003°03'0 0.0
2016-Feb-08 12:33N 53°24' W 003°03'0 0.0
2016-Feb-08 11:33N 53°24' W 003°03'0 0.0
2016-Feb-08 10:33N 53°24' W 003°03'0 0.0
2016-Feb-08 09:24N 53°24' W 003°03'0 0.0
2016-Feb-08 08:33N 53°24' W 003°03'0 0.0
2016-Feb-08 07:30N 53°24' W 003°03'0 0.0
2016-Feb-08 06:33N 53°24' W 003°03'0 0.0
2016-Feb-08 05:33N 53°24' W 003°03'0 0.0
2016-Feb-08 04:33N 53°24' W 003°03'0 0.0
2016-Feb-08 03:33N 53°24' W 003°03'0 0.0
2016-Feb-08 02:30N 53°24' W 003°03'0 0.0
2016-Feb-08 01:30N 53°24' W 003°03'0 0.0
2016-Feb-08 00:33N 53°24' W 003°03'0 0.0
2016-Feb-07 23:33N 53°24' W 003°03'0 0.0
2016-Feb-07 22:33N 53°24' W 003°03'0 0.0
2016-Feb-07 21:33N 53°24' W 003°03'0 0.0
2016-Feb-07 20:33N 53°24' W 003°03'0 0.0
2016-Feb-07 19:33N 53°24' W 003°03'0 0.0
2016-Feb-07 18:33N 53°24' W 003°03'0 0.0
2016-Feb-07 17:33N 53°24' W 003°03'0 0.0
2016-Feb-07 16:33N 53°24' W 003°03'0 0.0
2016-Feb-07 15:33N 53°24' W 003°03'0 0.0
2016-Feb-07 14:33N 53°24' W 003°03'0 0.0
2016-Feb-07 13:33N 53°24' W 003°03'0 0.0
2016-Feb-07 12:33N 53°24' W 003°03'0 0.0
2016-Feb-07 11:33N 53°24' W 003°03'0 0.0
2016-Feb-07 10:33N 53°24' W 003°03'0 0.0
2016-Feb-07 09:30N 53°24' W 003°03'0 0.0
2016-Feb-07 08:33N 53°24' W 003°03'0 0.0
2016-Feb-07 07:33N 53°24' W 003°03'0 0.0
2016-Feb-07 06:33N 53°24' W 003°03'0 0.0
2016-Feb-07 05:33N 53°24' W 003°03'0 0.0
2016-Feb-07 04:33N 53°24' W 003°03'0 0.0
2016-Feb-07 03:33N 53°24' W 003°03'0 0.0
2016-Feb-07 02:33N 53°24' W 003°03'0 0.0
2016-Feb-07 01:33N 53°24' W 003°03'0 0.0
2016-Feb-07 00:33N 53°24' W 003°03'0 0.0
2016-Feb-06 23:33N 53°24' W 003°03'0 0.0
2016-Feb-06 22:33N 53°24' W 003°03'0 0.0
2016-Feb-06 21:33N 53°24' W 003°03'0 0.0
2016-Feb-06 20:30N 53°24' W 003°03'0 0.0
2016-Feb-06 19:30N 53°24' W 003°03'0 0.0
2016-Feb-06 18:33N 53°24' W 003°03'0 0.0
2016-Feb-06 17:33N 53°24' W 003°03'0 0.0
2016-Feb-06 16:33N 53°24' W 003°03'0 0.0
2016-Feb-06 15:33N 53°24' W 003°03'0 0.0
2016-Feb-06 14:33N 53°24' W 003°03'0 0.0
2016-Feb-06 13:33N 53°24' W 003°03'0 0.0
2016-Feb-06 12:33N 53°24' W 003°03'0 0.0
2016-Feb-06 11:30N 53°24' W 003°03'0 0.0
2016-Feb-06 10:33N 53°24' W 003°03'0 0.0
2016-Feb-06 09:30N 53°24' W 003°03'0 0.0
2016-Feb-06 08:33N 53°24' W 003°03'0 0.0
2016-Feb-06 07:33N 53°24' W 003°03'0 0.0
2016-Feb-06 06:33N 53°24' W 003°03'0 0.0
2016-Feb-06 05:33N 53°24' W 003°03'0 0.0
2016-Feb-06 04:30N 53°24' W 003°03'0 0.0
2016-Feb-06 03:33N 53°24' W 003°03'0 0.0
2016-Feb-06 02:33N 53°24' W 003°03'0 0.0
2016-Feb-06 01:33N 53°24' W 003°03'0 0.0
2016-Feb-06 00:33N 53°24' W 003°03'0 0.0
2016-Feb-05 23:30N 53°24' W 003°03'0 0.0
2016-Feb-05 22:33N 53°24' W 003°03'1 0.9
2016-Feb-05 21:33N 53°24' W 003°01'0 0.0
2016-Feb-05 20:33N 53°24' W 003°01'1 0.7
2016-Feb-05 19:33N 53°24' W 003°00'6 5.9
2016-Feb-05 18:33N 53°29' W 003°05'9 9.2
2016-Feb-05 17:33N 53°31' W 003°20'4 4.4
2016-Feb-05 16:33N 53°28' W 003°25'0 0.1
2016-Feb-05 15:33N 53°28' W 003°25'0 0.0
2016-Feb-05 14:33N 53°28' W 003°25'0 0.0
2016-Feb-05 13:30N 53°29' W 003°25'0 0.0
2016-Feb-05 12:33N 53°29' W 003°25'0 0.0
2016-Feb-05 11:33N 53°29' W 003°25'0 0.0
2016-Feb-05 10:33N 53°29' W 003°25'0 0.0
2016-Feb-05 09:33N 53°28' W 003°25'0 0.0
2016-Feb-05 08:30N 53°28' W 003°25'0 0.0
2016-Feb-05 07:30N 53°28' W 003°25'0 0.0
2016-Feb-05 06:33N 53°28' W 003°25'0 0.0
2016-Feb-05 05:30N 53°28' W 003°25'0 0.0
2016-Feb-05 04:30N 53°28' W 003°25'0 0.0
2016-Feb-05 03:33N 53°28' W 003°25'0 0.0
2016-Feb-05 02:30N 53°28' W 003°25'0 0.0
2016-Feb-05 01:33N 53°28' W 003°25'0 0.1
2016-Feb-05 00:33N 53°28' W 003°25'0 0.0
2016-Feb-04 23:33N 53°28' W 003°25'0 0.1
2016-Feb-04 22:30N 53°28' W 003°25'0 0.0
2016-Feb-04 21:33N 53°28' W 003°25'0 0.0
2016-Feb-04 20:27N 53°28' W 003°25'0 0.0
2016-Feb-04 19:33N 53°28' W 003°25'0 0.0
2016-Feb-04 18:21N 53°28' W 003°25'0 0.0
2016-Feb-04 17:33N 53°28' W 003°25'0 0.1
2016-Feb-04 16:33N 53°28' W 003°25'9 9.3
2016-Feb-04 15:33N 53°30' W 003°41'68 9.7
2016-Feb-04 08:33N 54°11' W 005°13'1211.9
2016-Feb-04 07:33N 54°22' W 005°11'1110.6
2016-Feb-04 06:33N 54°32' W 005°03'3 2.7
2016-Feb-04 05:33N 54°34' W 005°02'2 2.1
2016-Feb-04 04:33N 54°36' W 005°05'2 1.9
2016-Feb-04 03:33N 54°37' W 005°07'2 1.5
2016-Feb-04 02:33N 54°37' W 005°10'1 1.2
2016-Feb-04 01:33N 54°37' W 005°12'1 1.2
2016-Feb-04 00:33N 54°37' W 005°13'1 1.5
2016-Feb-03 23:33N 54°35' W 005°15'3 2.5
2016-Feb-03 22:33N 54°38' W 005°17'1110.9
2016-Feb-03 21:33N 54°48' W 005°24'4212.1
2016-Feb-03 18:05N 55°21' W 006°09'611.9
2016-Feb-03 17:33N 55°23' W 006°19'1212.5
2016-Feb-03 16:33N 55°28' W 006°39'  
2016-Feb-01 01:31N 58°04' E 005°51'1010.5
2016-Feb-01 00:33N 58°01' E 006°09'1010.1
2016-Jan-31 23:33N 57°57' E 006°27'8 8.3
2016-Jan-31 22:33N 57°54' E 006°41'8 7.8
2016-Jan-31 21:33N 57°52' E 006°55'112 9.3
2016-Jan-31 09:33N 57°49' E 010°25'8 8.1
2016-Jan-31 08:33N 57°49' E 010°40'8 7.7
2016-Jan-31 07:33N 57°45' E 010°52'10 9.7
2016-Jan-31 06:33N 57°38' E 011°06'1010.4
2016-Jan-31 05:33N 57°31' E 011°20'1010.4
2016-Jan-31 04:33N 57°22' E 011°30'1111.3
2016-Jan-31 03:33N 57°11' E 011°37'1111.1
2016-Jan-31 02:33N 57°01' E 011°44'1111.2
2016-Jan-31 01:33N 56°50' E 011°51'1111.4
2016-Jan-31 00:33N 56°39' E 011°56'3611.1
2016-Jan-30 21:17N 56°08' E 012°30'710.0
2016-Jan-30 20:33N 56°03' E 012°40'9 9.4
2016-Jan-30 19:33N 55°54' E 012°45'1010.4
2016-Jan-30 18:33N 55°44' E 012°41'9 9.4
2016-Jan-30 17:33N 55°35' E 012°42'1010.3
2016-Jan-30 16:33N 55°24' E 012°42'10 9.5
2016-Jan-30 15:33N 55°16' E 012°51'1111.0
2016-Jan-30 14:33N 55°15' E 013°10'2110.6
2016-Jan-30 12:33N 55°14' E 013°47'10 9.8
2016-Jan-30 11:33N 55°14' E 014°04'9 8.8
2016-Jan-30 10:33N 55°15' E 014°19'1010.0
2016-Jan-30 09:33N 55°23' E 014°30'9 9.3
2016-Jan-30 08:33N 55°29' E 014°43'10 9.6
2016-Jan-30 07:33N 55°34' E 014°57'10 9.7
2016-Jan-30 06:33N 55°38' E 015°12'  

Dump ship's entire track history